createdAt,value
2022-08-27T04:00:35.387Z,0.00
2022-08-27T04:01:35.386Z,0.00
2022-08-27T04:02:35.381Z,0.00
2022-08-27T04:03:35.320Z,0.00
2022-08-27T04:04:35.318Z,0.00
2022-08-27T04:05:35.299Z,0.00
2022-08-27T04:06:35.304Z,0.00
2022-08-27T04:07:35.274Z,0.00
2022-08-27T04:08:35.263Z,0.00
2022-08-27T04:09:35.251Z,0.00
2022-08-27T04:10:35.241Z,0.00
2022-08-27T04:11:40.262Z,0.00
2022-08-27T04:12:35.219Z,0.00
2022-08-27T04:13:35.208Z,4.00
2022-08-27T04:14:35.224Z,4.00
2022-08-27T04:15:35.191Z,4.00
2022-08-27T04:16:36.198Z,0.00
2022-08-27T04:17:35.195Z,4.00
2022-08-27T04:18:35.158Z,4.00
2022-08-27T04:19:35.137Z,4.00
2022-08-27T04:20:36.088Z,4.00
2022-08-27T04:21:35.123Z,4.00
2022-08-27T04:22:40.140Z,4.00
2022-08-27T04:23:35.097Z,8.00
2022-08-27T04:24:35.087Z,12.00
2022-08-27T04:25:35.069Z,8.00
2022-08-27T04:26:35.060Z,8.00
2022-08-27T04:27:35.061Z,12.00
2022-08-27T04:28:38.395Z,12.00
2022-08-27T04:29:35.026Z,12.00
2022-08-27T04:30:35.015Z,16.00
2022-08-27T04:31:35.066Z,12.00
2022-08-27T04:32:35.001Z,16.00
2022-08-27T04:33:40.000Z,16.00
2022-08-27T04:34:34.992Z,20.00
2022-08-27T04:35:34.955Z,20.00
2022-08-27T04:36:34.947Z,24.00
2022-08-27T04:37:34.948Z,28.00
2022-08-27T04:38:34.927Z,28.00
2022-08-27T04:39:34.918Z,28.00
2022-08-27T04:40:34.929Z,32.00
2022-08-27T04:41:34.890Z,28.00
2022-08-27T04:42:34.891Z,36.00
2022-08-27T04:43:34.870Z,36.00
2022-08-27T04:44:39.885Z,40.00
2022-08-27T04:45:34.847Z,40.00
2022-08-27T04:46:34.871Z,40.00
2022-08-27T04:47:34.839Z,44.00
2022-08-27T04:48:34.811Z,48.00
2022-08-27T04:49:34.799Z,48.00
2022-08-27T04:50:34.787Z,52.00
2022-08-27T04:51:34.777Z,52.00
2022-08-27T04:52:34.785Z,52.00
2022-08-27T04:53:35.756Z,56.00
2022-08-27T04:54:34.750Z,60.00
2022-08-27T04:55:39.764Z,68.00
2022-08-27T04:56:34.722Z,88.00
2022-08-27T04:57:34.720Z,88.00
2022-08-27T04:58:34.704Z,88.00
2022-08-27T04:59:34.695Z,92.00
2022-08-27T05:00:34.675Z,84.00
2022-08-27T05:01:34.708Z,84.00
2022-08-27T05:02:34.666Z,80.00
2022-08-27T05:03:34.650Z,80.00
2022-08-27T05:04:34.633Z,84.00
2022-08-27T05:05:34.693Z,84.00
2022-08-27T05:06:39.630Z,84.00
2022-08-27T05:07:34.619Z,80.00
2022-08-27T05:08:34.591Z,88.00
2022-08-27T05:09:34.579Z,96.00
2022-08-27T05:10:34.563Z,104.00
2022-08-27T05:11:34.571Z,104.00
2022-08-27T05:12:34.553Z,100.00
2022-08-27T05:13:34.536Z,96.00
2022-08-27T05:14:34.521Z,96.00
2022-08-27T05:15:34.552Z,120.00
2022-08-27T05:16:34.502Z,140.00
2022-08-27T05:17:39.519Z,148.00
2022-08-27T05:18:42.148Z,144.00
2022-08-27T05:19:35.462Z,132.00
2022-08-27T05:20:34.450Z,132.00
2022-08-27T05:21:34.442Z,132.00
2022-08-27T05:22:34.437Z,140.00
2022-08-27T05:23:34.438Z,160.00
2022-08-27T05:24:34.407Z,180.00
2022-08-27T05:25:34.396Z,204.00
2022-08-27T05:26:34.382Z,184.00
2022-08-27T05:27:34.413Z,164.00
2022-08-27T05:28:39.385Z,176.00
2022-08-27T05:29:34.362Z,172.00
2022-08-27T05:30:34.340Z,176.00
2022-08-27T05:31:34.424Z,176.00
2022-08-27T05:32:34.331Z,192.00
2022-08-27T05:33:34.310Z,172.00
2022-08-27T05:34:34.304Z,188.00
2022-08-27T05:35:34.282Z,216.00
2022-08-27T05:36:34.271Z,224.00
2022-08-27T05:37:34.278Z,236.00
2022-08-27T05:38:34.257Z,260.00
2022-08-27T05:39:39.262Z,268.00
2022-08-27T05:40:34.336Z,288.00
2022-08-27T05:41:34.573Z,248.00
2022-08-27T05:42:34.213Z,252.00
2022-08-27T05:43:34.192Z,260.00
2022-08-27T05:44:41.030Z,284.00
2022-08-27T05:45:35.169Z,280.00
2022-08-27T05:46:34.203Z,268.00
2022-08-27T05:47:34.158Z,252.00
2022-08-27T05:48:35.134Z,232.00
2022-08-27T05:49:34.126Z,244.00
2022-08-27T05:50:39.174Z,264.00
2022-08-27T05:51:34.101Z,264.00
2022-08-27T05:52:34.118Z,260.00
2022-08-27T05:53:34.079Z,264.00
2022-08-27T05:54:34.083Z,268.00
2022-08-27T05:55:34.059Z,248.00
2022-08-27T05:56:34.044Z,248.00
2022-08-27T05:57:34.037Z,240.00
2022-08-27T05:58:34.052Z,244.00
2022-08-27T05:59:34.013Z,256.00
2022-08-27T06:00:34.003Z,276.00
2022-08-27T06:01:39.016Z,268.00
2022-08-27T06:02:34.026Z,256.00
2022-08-27T06:03:33.979Z,296.00
2022-08-27T06:04:33.954Z,264.00
2022-08-27T06:05:34.073Z,244.00
2022-08-27T06:06:33.931Z,228.00
2022-08-27T06:07:33.922Z,228.00
2022-08-27T06:08:33.925Z,180.00
2022-08-27T06:09:33.902Z,172.00
2022-08-27T06:10:33.887Z,176.00
2022-08-27T06:11:33.885Z,196.00
2022-08-27T06:12:38.891Z,208.00
2022-08-27T06:13:33.867Z,232.00
2022-08-27T06:14:33.842Z,244.00
2022-08-27T06:15:33.887Z,256.00
2022-08-27T06:16:33.904Z,256.00
2022-08-27T06:17:33.809Z,256.00
2022-08-27T06:18:33.861Z,248.00
2022-08-27T06:19:33.790Z,248.00
2022-08-27T06:20:33.780Z,284.00
2022-08-27T06:21:33.772Z,316.00
2022-08-27T06:22:33.756Z,352.00
2022-08-27T06:23:38.815Z,412.00
2022-08-27T06:24:33.730Z,444.00
2022-08-27T06:25:33.719Z,460.00
2022-08-27T06:26:33.721Z,496.00
2022-08-27T06:27:33.711Z,504.00
2022-08-27T06:28:33.696Z,492.00
2022-08-27T06:29:33.715Z,444.00
2022-08-27T06:30:33.661Z,400.00
2022-08-27T06:31:33.762Z,384.00
2022-08-27T06:32:33.881Z,388.00
2022-08-27T06:33:33.919Z,392.00
2022-08-27T06:34:38.638Z,432.00
2022-08-27T06:35:34.144Z,432.00
2022-08-27T06:36:33.649Z,424.00
2022-08-27T06:37:33.662Z,408.00
2022-08-27T06:38:34.356Z,368.00
2022-08-27T06:39:33.560Z,356.00
2022-08-27T06:40:33.606Z,364.00
2022-08-27T06:41:33.670Z,376.00
2022-08-27T06:42:33.526Z,396.00
2022-08-27T06:43:33.675Z,380.00
2022-08-27T06:44:33.504Z,360.00
2022-08-27T06:45:38.514Z,352.00
2022-08-27T06:46:33.595Z,364.00
2022-08-27T06:47:33.470Z,384.00
2022-08-27T06:48:33.491Z,432.00
2022-08-27T06:49:33.448Z,532.00
2022-08-27T06:50:33.434Z,624.00
2022-08-27T06:51:33.428Z,656.00
2022-08-27T06:52:33.433Z,660.00
2022-08-27T06:53:33.512Z,636.00
2022-08-27T06:54:33.417Z,620.00
2022-08-27T06:55:37.211Z,592.00
2022-08-27T06:56:38.392Z,572.00
2022-08-27T06:57:33.357Z,584.00
2022-08-27T06:58:33.354Z,604.00
2022-08-27T06:59:33.336Z,640.00
2022-08-27T07:00:33.321Z,632.00
2022-08-27T07:01:33.345Z,616.00
2022-08-27T07:02:33.367Z,604.00
2022-08-27T07:03:33.354Z,604.00
2022-08-27T07:04:33.281Z,664.00
2022-08-27T07:05:33.268Z,676.00
2022-08-27T07:06:33.285Z,696.00
2022-08-27T07:07:44.186Z,700.00
2022-08-27T07:08:34.243Z,736.00
2022-08-27T07:09:33.222Z,756.00
2022-08-27T07:10:33.209Z,756.00
2022-08-27T07:11:33.198Z,732.00
2022-08-27T07:12:33.189Z,740.00
2022-08-27T07:13:33.193Z,784.00
2022-08-27T07:14:37.771Z,860.00
2022-08-27T07:15:34.202Z,936.00
2022-08-27T07:16:33.139Z,968.00
2022-08-27T07:17:33.134Z,928.00
2022-08-27T07:18:38.230Z,828.00
2022-08-27T07:19:33.117Z,760.00
2022-08-27T07:20:33.094Z,756.00
2022-08-27T07:21:33.084Z,748.00
2022-08-27T07:22:33.072Z,768.00
2022-08-27T07:23:33.091Z,736.00
2022-08-27T07:24:33.051Z,780.00
2022-08-27T07:25:33.043Z,828.00
2022-08-27T07:26:33.032Z,848.00
2022-08-27T07:27:33.025Z,796.00
2022-08-27T07:28:33.021Z,824.00
2022-08-27T07:29:38.018Z,892.00
2022-08-27T07:30:33.028Z,976.00
2022-08-27T07:31:32.977Z,1012.00
2022-08-27T07:32:33.042Z,1080.00
2022-08-27T07:33:32.959Z,1076.00
2022-08-27T07:34:32.944Z,1132.00
2022-08-27T07:35:32.926Z,1124.00
2022-08-27T07:36:32.924Z,1172.00
2022-08-27T07:37:35.222Z,1244.00
2022-08-27T07:38:32.903Z,1328.00
2022-08-27T07:39:32.883Z,1396.00
2022-08-27T07:40:37.953Z,1392.00
2022-08-27T07:41:32.858Z,1344.00
2022-08-27T07:42:32.845Z,1324.00
2022-08-27T07:43:32.835Z,1428.00
2022-08-27T07:44:34.507Z,1540.00
2022-08-27T07:45:32.813Z,1692.00
2022-08-27T07:46:35.810Z,1708.00
2022-08-27T07:47:33.792Z,1692.00
2022-08-27T07:48:32.779Z,1692.00
2022-08-27T07:49:32.782Z,1780.00
2022-08-27T07:50:32.755Z,1904.00
2022-08-27T07:51:37.770Z,2072.00
2022-08-27T07:52:32.744Z,2080.00
2022-08-27T07:53:32.745Z,2096.00
2022-08-27T07:54:32.719Z,2144.00
2022-08-27T07:55:32.699Z,2068.00
2022-08-27T07:56:32.688Z,2088.00
2022-08-27T07:57:32.677Z,2140.00
2022-08-27T07:58:32.666Z,1988.00
2022-08-27T07:59:32.663Z,1840.00
2022-08-27T08:00:32.658Z,1652.00
2022-08-27T08:01:32.733Z,1464.00
2022-08-27T08:02:37.663Z,1332.00
2022-08-27T08:03:32.609Z,1232.00
2022-08-27T08:04:32.608Z,1260.00
2022-08-27T08:05:32.589Z,1264.00
2022-08-27T08:06:32.598Z,1284.00
2022-08-27T08:07:32.564Z,1176.00
2022-08-27T08:08:32.579Z,1096.00
2022-08-27T08:09:32.568Z,1112.00
2022-08-27T08:10:35.523Z,1116.00
2022-08-27T08:11:32.522Z,1076.00
2022-08-27T08:12:32.507Z,1088.00
2022-08-27T08:13:37.518Z,1092.00
2022-08-27T08:14:32.495Z,1044.00
2022-08-27T08:15:32.473Z,992.00
2022-08-27T08:16:32.534Z,932.00
2022-08-27T08:17:32.452Z,872.00
2022-08-27T08:18:32.439Z,820.00
2022-08-27T08:19:32.455Z,800.00
2022-08-27T08:20:56.442Z,848.00
2022-08-27T08:21:33.413Z,952.00
2022-08-27T08:22:32.394Z,1032.00
2022-08-27T08:23:32.389Z,1028.00
2022-08-27T08:24:37.405Z,1064.00
2022-08-27T08:25:34.605Z,1124.00
2022-08-27T08:26:33.353Z,1116.00
2022-08-27T08:27:32.345Z,1064.00
2022-08-27T08:28:32.330Z,976.00
2022-08-27T08:29:32.339Z,984.00
2022-08-27T08:30:33.170Z,1012.00
2022-08-27T08:31:32.297Z,972.00
2022-08-27T08:32:32.292Z,1020.00
2022-08-27T08:33:32.274Z,1148.00
2022-08-27T08:34:32.283Z,1332.00
2022-08-27T08:35:40.870Z,1368.00
2022-08-27T08:36:32.238Z,1440.00
2022-08-27T08:37:32.229Z,1636.00
2022-08-27T08:38:32.219Z,2080.00
2022-08-27T08:39:32.232Z,2096.00
2022-08-27T08:40:32.301Z,1916.00
2022-08-27T08:41:32.190Z,1764.00
2022-08-27T08:42:32.190Z,1732.00
2022-08-27T08:43:32.183Z,1788.00
2022-08-27T08:44:32.168Z,1800.00
2022-08-27T08:45:32.141Z,1804.00
2022-08-27T08:46:37.153Z,1876.00
2022-08-27T08:47:32.126Z,1908.00
2022-08-27T08:48:32.103Z,1992.00
2022-08-27T08:49:32.122Z,2064.00
2022-08-27T08:50:32.089Z,2012.00
2022-08-27T08:51:32.105Z,1932.00
2022-08-27T08:52:32.196Z,1932.00
2022-08-27T08:53:32.048Z,2004.00
2022-08-27T08:54:32.055Z,2104.00
2022-08-27T08:55:32.035Z,2224.00
2022-08-27T08:56:32.019Z,2180.00
2022-08-27T08:57:37.031Z,2288.00
2022-08-27T08:58:31.999Z,2188.00
2022-08-27T08:59:31.983Z,2252.00
2022-08-27T09:00:31.994Z,2328.00
2022-08-27T09:01:32.014Z,2292.00
2022-08-27T09:02:31.957Z,2216.00
2022-08-27T09:03:31.979Z,2236.00
2022-08-27T09:04:31.930Z,2212.00
2022-08-27T09:05:31.929Z,2272.00
2022-08-27T09:06:31.906Z,2420.00
2022-08-27T09:07:31.892Z,2540.00
2022-08-27T09:08:41.282Z,2544.00
2022-08-27T09:09:31.872Z,2644.00
2022-08-27T09:10:31.873Z,2812.00
2022-08-27T09:11:31.847Z,2952.00
2022-08-27T09:12:31.841Z,3112.00
2022-08-27T09:13:31.825Z,3292.00
2022-08-27T09:14:31.820Z,3468.00
2022-08-27T09:15:31.815Z,3400.00
2022-08-27T09:16:31.846Z,3272.00
2022-08-27T09:17:31.787Z,3140.00
2022-08-27T09:18:31.779Z,3076.00
2022-08-27T09:19:36.782Z,3096.00
2022-08-27T09:20:31.771Z,3084.00
2022-08-27T09:21:31.742Z,2852.00
2022-08-27T09:22:31.729Z,2748.00
2022-08-27T09:23:31.719Z,2964.00
2022-08-27T09:24:31.716Z,3200.00
2022-08-27T09:25:31.707Z,3128.00
2022-08-27T09:26:31.701Z,2936.00
2022-08-27T09:27:31.673Z,2900.00
2022-08-27T09:28:31.703Z,2936.00
2022-08-27T09:29:31.670Z,2944.00
2022-08-27T09:30:36.709Z,3256.00
2022-08-27T09:31:31.627Z,3076.00
2022-08-27T09:32:31.621Z,3144.00
2022-08-27T09:33:43.836Z,3412.00
2022-08-27T09:34:32.594Z,3648.00
2022-08-27T09:35:31.633Z,3708.00
2022-08-27T09:36:31.577Z,3768.00
2022-08-27T09:37:34.639Z,3824.00
2022-08-27T09:38:31.554Z,3760.00
2022-08-27T09:39:31.581Z,3580.00
2022-08-27T09:40:31.620Z,3404.00
2022-08-27T09:41:36.538Z,3260.00
2022-08-27T09:42:31.528Z,3320.00
2022-08-27T09:43:31.527Z,3384.00
2022-08-27T09:44:31.492Z,3472.00
2022-08-27T09:45:31.598Z,3432.00
2022-08-27T09:46:31.471Z,3452.00
2022-08-27T09:47:31.450Z,3840.00
2022-08-27T09:48:31.441Z,4252.00
2022-08-27T09:49:31.432Z,4028.00
2022-08-27T09:50:31.433Z,3868.00
2022-08-27T09:51:31.417Z,3756.00
2022-08-27T09:52:37.797Z,3916.00
2022-08-27T09:53:31.389Z,3992.00
2022-08-27T09:54:31.372Z,4028.00
2022-08-27T09:55:31.376Z,3712.00
2022-08-27T09:56:31.357Z,3704.00
2022-08-27T09:57:31.343Z,3692.00
2022-08-27T09:58:31.333Z,3712.00
2022-08-27T09:59:31.324Z,3652.00
2022-08-27T10:00:31.316Z,3536.00
2022-08-27T10:01:31.355Z,3468.00
2022-08-27T10:02:31.282Z,3360.00
2022-08-27T10:03:36.433Z,3552.00
2022-08-27T10:04:31.299Z,3332.00
2022-08-27T10:05:31.257Z,3372.00
2022-08-27T10:06:31.241Z,3344.00
2022-08-27T10:07:31.298Z,3596.00
2022-08-27T10:08:31.264Z,3688.00
2022-08-27T10:09:31.211Z,3676.00
2022-08-27T10:10:31.226Z,3688.00
2022-08-27T10:11:31.251Z,3664.00
2022-08-27T10:12:31.200Z,3632.00
2022-08-27T10:13:31.157Z,3752.00
2022-08-27T10:14:36.170Z,3908.00
2022-08-27T10:15:31.548Z,4000.00
2022-08-27T10:16:32.243Z,4140.00
2022-08-27T10:17:31.113Z,4428.00
2022-08-27T10:18:31.103Z,4508.00
2022-08-27T10:19:31.090Z,4416.00
2022-08-27T10:20:31.107Z,4360.00
2022-08-27T10:21:31.100Z,4268.00
2022-08-27T10:22:31.054Z,4228.00
2022-08-27T10:23:31.054Z,4336.00
2022-08-27T10:24:31.043Z,4340.00
2022-08-27T10:25:36.045Z,4464.00
2022-08-27T10:26:33.817Z,4664.00
2022-08-27T10:27:31.010Z,4988.00
2022-08-27T10:28:30.988Z,5228.00
2022-08-27T10:29:30.974Z,5536.00
2022-08-27T10:30:30.992Z,5772.00
2022-08-27T10:31:30.993Z,5828.00
2022-08-27T10:32:30.950Z,5860.00
2022-08-27T10:33:30.940Z,5932.00
2022-08-27T10:34:30.936Z,5996.00
2022-08-27T10:35:30.926Z,6080.00
2022-08-27T10:36:35.939Z,6096.00
2022-08-27T10:37:36.869Z,6188.00
2022-08-27T10:38:31.876Z,6140.00
2022-08-27T10:39:30.867Z,6164.00
2022-08-27T10:40:30.945Z,6092.00
2022-08-27T10:41:30.870Z,6180.00
2022-08-27T10:42:30.923Z,6304.00
2022-08-27T10:43:30.820Z,6088.00
2022-08-27T10:44:30.805Z,6032.00
2022-08-27T10:45:31.332Z,5988.00
2022-08-27T10:46:30.835Z,5852.00
2022-08-27T10:47:35.795Z,5716.00
2022-08-27T10:48:30.763Z,5728.00
2022-08-27T10:49:30.746Z,5840.00
2022-08-27T10:50:30.743Z,5728.00
2022-08-27T10:51:30.737Z,5768.00
2022-08-27T10:52:30.715Z,5928.00
2022-08-27T10:53:30.701Z,5960.00
2022-08-27T10:54:30.708Z,6012.00
2022-08-27T10:55:30.704Z,5932.00
2022-08-27T10:56:30.684Z,5788.00
2022-08-27T10:57:51.674Z,5984.00
2022-08-27T10:58:36.678Z,6148.00
2022-08-27T10:59:30.635Z,6320.00
2022-08-27T11:00:30.659Z,6000.00
2022-08-27T11:01:30.696Z,5804.00
2022-08-27T11:02:30.665Z,5472.00
2022-08-27T11:03:33.326Z,5376.00
2022-08-27T11:04:30.583Z,5452.00
2022-08-27T11:05:30.567Z,5368.00
2022-08-27T11:06:30.570Z,5168.00
2022-08-27T11:07:30.551Z,5068.00
2022-08-27T11:08:30.571Z,4928.00
2022-08-27T11:09:35.548Z,5072.00
2022-08-27T11:10:30.513Z,5216.00
2022-08-27T11:12:31.489Z,5252.00
2022-08-27T11:13:30.482Z,5332.00
2022-08-27T11:14:30.469Z,5244.00
2022-08-27T11:15:30.624Z,5244.00
2022-08-27T11:16:30.514Z,5192.00
2022-08-27T11:17:32.281Z,5208.00
2022-08-27T11:18:30.428Z,5292.00
2022-08-27T11:19:30.412Z,5548.00
2022-08-27T11:20:35.441Z,5276.00
2022-08-27T11:21:30.404Z,5160.00
2022-08-27T11:22:30.378Z,5124.00
2022-08-27T11:23:30.365Z,4876.00
2022-08-27T11:24:34.811Z,4648.00
2022-08-27T11:25:30.354Z,4184.00
2022-08-27T11:26:30.355Z,4376.00
2022-08-27T11:27:30.326Z,4448.00
2022-08-27T11:28:30.485Z,4648.00
2022-08-27T11:29:30.596Z,4528.00
2022-08-27T11:30:30.301Z,4504.00
2022-08-27T11:31:35.336Z,4352.00
2022-08-27T11:32:30.271Z,4168.00
2022-08-27T11:33:30.325Z,4088.00
2022-08-27T11:34:30.250Z,4196.00
2022-08-27T11:35:30.336Z,4092.00
2022-08-27T11:36:30.233Z,4176.00
2022-08-27T11:37:30.215Z,4304.00
2022-08-27T11:38:30.237Z,4288.00
2022-08-27T11:39:30.227Z,4120.00
2022-08-27T11:40:30.260Z,3712.00
2022-08-27T11:41:30.176Z,3272.00
2022-08-27T11:42:36.183Z,2948.00
2022-08-27T11:43:30.232Z,2956.00
2022-08-27T11:44:30.137Z,3176.00
2022-08-27T11:45:30.119Z,3672.00
2022-08-27T11:46:30.218Z,3812.00
2022-08-27T11:47:30.100Z,4044.00
2022-08-27T11:48:30.089Z,4012.00
2022-08-27T11:49:30.079Z,4060.00
2022-08-27T11:50:30.067Z,4012.00
2022-08-27T11:51:30.070Z,4128.00
2022-08-27T11:52:30.050Z,4184.00
2022-08-27T11:53:35.088Z,4200.00
2022-08-27T11:54:31.024Z,4144.00
2022-08-27T11:55:30.028Z,4140.00
2022-08-27T11:56:30.015Z,4116.00
2022-08-27T11:57:30.083Z,4256.00
2022-08-27T11:58:30.272Z,4248.00
2022-08-27T11:59:29.967Z,4080.00
2022-08-27T12:00:29.961Z,4020.00
2022-08-27T12:01:29.951Z,3976.00
2022-08-27T12:02:29.938Z,3896.00
2022-08-27T12:03:29.996Z,3836.00
2022-08-27T12:04:34.988Z,4056.00
2022-08-27T12:05:29.908Z,3904.00
2022-08-27T12:06:29.898Z,3832.00
2022-08-27T12:07:29.884Z,3744.00
2022-08-27T12:08:29.865Z,3680.00
2022-08-27T12:09:29.851Z,3640.00
2022-08-27T12:10:29.846Z,3820.00
2022-08-27T12:11:29.841Z,3800.00
2022-08-27T12:12:29.819Z,3884.00
2022-08-27T12:13:29.807Z,4020.00
2022-08-27T12:14:29.799Z,4056.00
2022-08-27T12:15:34.807Z,4008.00
2022-08-27T12:16:29.955Z,4160.00
2022-08-27T12:17:29.764Z,4088.00
2022-08-27T12:18:29.772Z,3968.00
2022-08-27T12:19:29.744Z,3972.00
2022-08-27T12:20:29.732Z,3912.00
2022-08-27T12:21:29.731Z,3900.00
2022-08-27T12:22:29.741Z,3780.00
2022-08-27T12:23:29.732Z,3772.00
2022-08-27T12:24:29.686Z,3708.00
2022-08-27T12:25:29.674Z,3508.00
2022-08-27T12:26:34.695Z,3608.00
2022-08-27T12:27:29.657Z,3472.00
2022-08-27T12:28:29.649Z,3388.00
2022-08-27T12:29:29.628Z,3356.00
2022-08-27T12:30:29.621Z,3416.00
2022-08-27T12:31:29.697Z,3276.00
2022-08-27T12:32:29.602Z,3136.00
2022-08-27T12:33:29.586Z,3016.00
2022-08-27T12:34:29.580Z,2988.00
2022-08-27T12:35:29.568Z,3008.00
2022-08-27T12:36:29.629Z,3056.00
2022-08-27T12:37:34.582Z,3124.00
2022-08-27T12:38:29.530Z,3140.00
2022-08-27T12:39:29.520Z,3156.00
2022-08-27T12:40:29.609Z,3244.00
2022-08-27T12:41:29.517Z,3204.00
2022-08-27T12:42:29.487Z,3192.00
2022-08-27T12:43:29.476Z,3208.00
2022-08-27T12:44:29.462Z,3224.00
2022-08-27T12:45:29.455Z,3368.00
2022-08-27T12:46:30.647Z,3284.00
2022-08-27T12:47:29.434Z,3304.00
2022-08-27T12:48:34.443Z,3372.00
2022-08-27T12:49:38.740Z,3356.00
2022-08-27T12:50:30.395Z,3380.00
2022-08-27T12:51:29.397Z,3372.00
2022-08-27T12:52:29.376Z,3424.00
2022-08-27T12:53:29.363Z,3384.00
2022-08-27T12:54:30.343Z,3360.00
2022-08-27T12:55:29.347Z,3220.00
2022-08-27T12:56:29.339Z,3064.00
2022-08-27T12:57:29.319Z,3048.00
2022-08-27T12:58:29.306Z,3132.00
2022-08-27T12:59:34.335Z,3112.00
2022-08-27T13:00:29.349Z,3092.00
2022-08-27T13:01:29.405Z,2792.00
2022-08-27T13:02:29.287Z,2824.00
2022-08-27T13:03:29.251Z,2868.00
2022-08-27T13:04:29.246Z,2920.00
2022-08-27T13:05:29.229Z,2984.00
2022-08-27T13:06:29.243Z,3036.00
2022-08-27T13:07:37.679Z,2996.00
2022-08-27T13:08:30.193Z,3020.00
2022-08-27T13:09:29.183Z,2884.00
2022-08-27T13:10:34.198Z,2796.00
2022-08-27T13:11:29.197Z,2580.00
2022-08-27T13:12:29.150Z,2644.00
2022-08-27T13:13:29.146Z,2768.00
2022-08-27T13:14:29.126Z,2920.00
2022-08-27T13:15:29.120Z,2976.00
2022-08-27T13:16:29.161Z,3140.00
2022-08-27T13:17:29.094Z,3284.00
2022-08-27T13:18:29.969Z,3312.00
2022-08-27T13:19:29.073Z,3252.00
2022-08-27T13:20:29.059Z,3276.00
2022-08-27T13:21:34.104Z,3320.00
2022-08-27T13:22:29.048Z,3308.00
2022-08-27T13:23:29.029Z,3316.00
2022-08-27T13:24:29.022Z,3400.00
2022-08-27T13:25:29.005Z,3372.00
2022-08-27T13:26:28.995Z,3348.00
2022-08-27T13:27:28.998Z,3548.00
2022-08-27T13:28:28.970Z,3476.00
2022-08-27T13:29:28.965Z,3480.00
2022-08-27T13:30:35.893Z,3408.00
2022-08-27T13:31:30.026Z,3444.00
2022-08-27T13:32:33.959Z,3456.00
2022-08-27T13:33:28.920Z,3476.00
2022-08-27T13:34:28.902Z,3572.00
2022-08-27T13:35:28.900Z,3504.00
2022-08-27T13:36:28.880Z,3628.00
2022-08-27T13:37:28.887Z,3548.00
2022-08-27T13:38:28.862Z,3520.00
2022-08-27T13:39:28.848Z,3488.00
2022-08-27T13:40:28.986Z,3544.00
2022-08-27T13:41:28.831Z,3640.00
2022-08-27T13:42:28.826Z,3420.00
2022-08-27T13:43:33.826Z,3428.00
2022-08-27T13:44:28.798Z,3332.00
2022-08-27T13:45:28.783Z,3504.00
2022-08-27T13:46:28.830Z,3452.00
2022-08-27T13:47:28.795Z,3324.00
2022-08-27T13:48:28.746Z,3312.00
2022-08-27T13:49:28.737Z,3428.00
2022-08-27T13:50:28.725Z,3428.00
2022-08-27T13:51:28.726Z,3340.00
2022-08-27T13:52:28.714Z,3192.00
2022-08-27T13:53:28.702Z,3312.00
2022-08-27T13:54:33.706Z,3260.00
2022-08-27T13:55:28.670Z,3264.00
2022-08-27T13:56:28.656Z,3156.00
2022-08-27T13:57:28.658Z,3116.00
2022-08-27T13:58:28.636Z,3136.00
2022-08-27T13:59:28.628Z,3168.00
2022-08-27T14:00:28.612Z,3060.00
2022-08-27T14:01:28.664Z,3128.00
2022-08-27T14:02:28.779Z,3232.00
2022-08-27T14:03:28.582Z,3056.00
2022-08-27T14:04:28.576Z,3100.00
2022-08-27T14:05:33.587Z,3096.00
2022-08-27T14:06:31.952Z,3132.00
2022-08-27T14:07:29.550Z,3300.00
2022-08-27T14:08:28.557Z,3268.00
2022-08-27T14:09:28.514Z,3296.00
2022-08-27T14:10:28.500Z,3300.00
2022-08-27T14:11:28.534Z,3340.00
2022-08-27T14:12:32.916Z,3328.00
2022-08-27T14:13:28.469Z,3372.00
2022-08-27T14:14:28.455Z,3580.00
2022-08-27T14:15:28.450Z,3412.00
2022-08-27T14:16:33.557Z,3532.00
2022-08-27T14:17:29.763Z,3496.00
2022-08-27T14:18:48.094Z,3644.00
2022-08-27T14:19:29.536Z,3568.00
2022-08-27T14:20:29.390Z,3728.00
2022-08-27T14:21:28.379Z,3684.00
2022-08-27T14:22:28.393Z,3760.00
2022-08-27T14:23:28.366Z,3980.00
2022-08-27T14:24:28.346Z,4364.00
2022-08-27T14:25:28.335Z,4172.00
2022-08-27T14:26:28.324Z,4240.00
2022-08-27T14:27:33.345Z,4300.00
2022-08-27T14:28:28.299Z,4696.00
2022-08-27T14:29:28.302Z,4444.00
2022-08-27T14:30:29.826Z,4716.00
2022-08-27T14:31:28.298Z,4676.00
2022-08-27T14:32:28.256Z,4652.00
2022-08-27T14:33:28.255Z,4844.00
2022-08-27T14:34:28.237Z,5060.00
2022-08-27T14:35:28.234Z,4936.00
2022-08-27T14:36:28.214Z,5124.00
2022-08-27T14:37:28.201Z,5208.00
2022-08-27T14:38:33.227Z,5032.00
2022-08-27T14:39:28.180Z,4996.00
2022-08-27T14:40:28.256Z,4952.00
2022-08-27T14:41:28.156Z,5028.00
2022-08-27T14:42:28.628Z,4788.00
2022-08-27T14:43:28.147Z,4788.00
2022-08-27T14:44:28.120Z,5048.00
2022-08-27T14:45:28.117Z,4492.00
2022-08-27T14:46:28.165Z,4460.00
2022-08-27T14:47:31.114Z,4252.00
2022-08-27T14:48:29.198Z,4100.00
2022-08-27T14:49:33.089Z,4080.00
2022-08-27T14:50:28.054Z,4040.00
2022-08-27T14:51:28.047Z,3784.00
2022-08-27T14:52:28.034Z,3764.00
2022-08-27T14:53:28.041Z,3496.00
2022-08-27T14:54:29.167Z,3324.00
2022-08-27T14:55:29.005Z,3228.00
2022-08-27T14:56:27.993Z,3064.00
2022-08-27T14:57:27.980Z,2924.00
2022-08-27T14:58:27.973Z,2768.00
2022-08-27T14:59:27.954Z,2684.00
2022-08-27T15:00:32.963Z,2580.00
2022-08-27T15:01:27.983Z,2472.00
2022-08-27T15:02:27.922Z,2368.00
2022-08-27T15:03:27.947Z,2380.00
2022-08-27T15:04:27.968Z,2344.00
2022-08-27T15:05:28.009Z,2380.00
2022-08-27T15:06:27.879Z,2140.00
2022-08-27T15:07:27.866Z,2060.00
2022-08-27T15:08:29.418Z,1992.00
2022-08-27T15:09:27.849Z,1924.00
2022-08-27T15:10:27.829Z,1856.00
2022-08-27T15:11:32.845Z,1828.00
2022-08-27T15:12:27.808Z,1824.00
2022-08-27T15:13:27.808Z,1852.00
2022-08-27T15:14:27.817Z,1800.00
2022-08-27T15:15:27.774Z,1784.00
2022-08-27T15:16:27.888Z,1704.00
2022-08-27T15:17:34.568Z,1760.00
2022-08-27T15:18:28.750Z,1832.00
2022-08-27T15:19:27.736Z,1872.00
2022-08-27T15:20:27.717Z,1888.00
2022-08-27T15:21:27.723Z,1928.00
2022-08-27T15:22:32.721Z,1972.00
2022-08-27T15:23:27.698Z,1884.00
2022-08-27T15:24:27.673Z,1768.00
2022-08-27T15:25:27.665Z,1644.00
2022-08-27T15:26:27.649Z,1432.00
2022-08-27T15:27:38.301Z,1272.00
2022-08-27T15:28:28.637Z,1232.00
2022-08-27T15:29:27.620Z,1172.00
2022-08-27T15:30:27.605Z,1092.00
2022-08-27T15:31:27.623Z,1040.00
2022-08-27T15:32:27.861Z,996.00
2022-08-27T15:33:32.611Z,960.00
2022-08-27T15:34:27.560Z,948.00
2022-08-27T15:35:27.556Z,928.00
2022-08-27T15:36:27.591Z,920.00
2022-08-27T15:37:27.580Z,988.00
2022-08-27T15:38:27.516Z,1036.00
2022-08-27T15:39:27.518Z,1024.00
2022-08-27T15:40:27.671Z,964.00
2022-08-27T15:41:29.406Z,936.00
2022-08-27T15:42:27.502Z,920.00
2022-08-27T15:43:27.461Z,796.00
2022-08-27T15:44:32.483Z,748.00
2022-08-27T15:45:27.849Z,760.00
2022-08-27T15:46:27.548Z,764.00
2022-08-27T15:47:27.416Z,792.00
2022-08-27T15:48:27.406Z,796.00
2022-08-27T15:49:27.406Z,844.00
2022-08-27T15:50:27.509Z,840.00
2022-08-27T15:51:27.372Z,888.00
2022-08-27T15:52:36.388Z,976.00
2022-08-27T15:53:28.449Z,1076.00
2022-08-27T15:54:27.396Z,1116.00
2022-08-27T15:55:32.350Z,1072.00
2022-08-27T15:56:30.342Z,1048.00
2022-08-27T15:57:28.306Z,1040.00
2022-08-27T15:58:29.004Z,968.00
2022-08-27T15:59:27.293Z,976.00
2022-08-27T16:00:27.270Z,992.00
2022-08-27T16:01:27.302Z,972.00
2022-08-27T16:02:27.280Z,1012.00
2022-08-27T16:03:33.202Z,1040.00
2022-08-27T16:04:28.261Z,1116.00
2022-08-27T16:05:27.235Z,1152.00
2022-08-27T16:06:32.225Z,1256.00
2022-08-27T16:07:27.194Z,1368.00
2022-08-27T16:08:27.229Z,1384.00
2022-08-27T16:09:27.224Z,1464.00
2022-08-27T16:10:27.174Z,1456.00
2022-08-27T16:11:27.157Z,1456.00
2022-08-27T16:12:27.748Z,1460.00
2022-08-27T16:13:27.134Z,1496.00
2022-08-27T16:14:27.128Z,1484.00
2022-08-27T16:15:27.107Z,1460.00
2022-08-27T16:16:27.097Z,1604.00
2022-08-27T16:17:32.106Z,1496.00